createdAt,value
2022-11-24T00:00:52.305Z,98.68
2022-11-24T00:01:52.325Z,98.57
2022-11-24T00:02:52.378Z,98.57
2022-11-24T00:03:52.259Z,98.88
2022-11-24T00:04:52.234Z,98.78
2022-11-24T00:05:52.237Z,98.47
2022-11-24T00:06:52.227Z,98.57
2022-11-24T00:07:52.276Z,98.99
2022-11-24T00:08:52.209Z,98.47
2022-11-24T00:09:52.200Z,98.78
2022-11-24T00:10:52.171Z,98.88
2022-11-24T00:11:52.177Z,98.78
2022-11-24T00:12:52.154Z,98.88
2022-11-24T00:13:52.135Z,98.78
2022-11-24T00:14:52.157Z,98.68
2022-11-24T00:15:52.113Z,98.68
2022-11-24T00:16:52.204Z,98.68
2022-11-24T00:17:52.088Z,98.68
2022-11-24T00:18:52.098Z,98.78
2022-11-24T00:19:52.074Z,98.63
2022-11-24T00:20:52.094Z,98.53
2022-11-24T00:21:52.099Z,98.53
2022-11-24T00:22:52.033Z,98.78
2022-11-24T00:23:52.023Z,98.78
2022-11-24T00:24:52.016Z,98.32
2022-11-24T00:25:52.007Z,98.94
2022-11-24T00:26:52.013Z,98.63
2022-11-24T00:27:51.990Z,98.94
2022-11-24T00:28:51.967Z,98.74
2022-11-24T00:29:51.964Z,98.22
2022-11-24T00:30:51.988Z,98.22
2022-11-24T00:31:51.972Z,98.32
2022-11-24T00:32:51.952Z,98.32
2022-11-24T00:33:51.921Z,98.11
2022-11-24T00:34:51.900Z,98.22
2022-11-24T00:35:51.884Z,98.22
2022-11-24T00:36:51.893Z,98.43
2022-11-24T00:37:51.902Z,98.32
2022-11-24T00:38:51.858Z,98.22
2022-11-24T00:39:51.838Z,98.32
2022-11-24T00:40:51.825Z,98.32
2022-11-24T00:41:51.845Z,98.32
2022-11-24T00:42:51.829Z,97.60
2022-11-24T00:43:51.802Z,98.32
2022-11-24T00:44:51.821Z,98.32
2022-11-24T00:45:51.917Z,97.81
2022-11-24T00:46:51.930Z,97.76
2022-11-24T00:47:51.759Z,97.91
2022-11-24T00:48:51.763Z,97.86
2022-11-24T00:49:51.735Z,97.91
2022-11-24T00:50:51.733Z,97.71
2022-11-24T00:51:51.714Z,97.71
2022-11-24T00:52:51.746Z,98.01
2022-11-24T00:53:51.705Z,97.91
2022-11-24T00:54:51.680Z,97.81
2022-11-24T00:55:51.686Z,97.81
2022-11-24T00:56:51.656Z,97.91
2022-11-24T00:57:51.674Z,98.11
2022-11-24T00:58:51.633Z,98.22
2022-11-24T00:59:51.623Z,98.22
2022-11-24T01:00:51.631Z,97.54
2022-11-24T01:01:51.664Z,97.54
2022-11-24T01:02:51.686Z,97.33
2022-11-24T01:03:51.575Z,97.59
2022-11-24T01:04:51.577Z,97.49
2022-11-24T01:05:51.555Z,97.44
2022-11-24T01:06:51.556Z,98.06
2022-11-24T01:07:51.649Z,98.16
2022-11-24T01:08:51.552Z,97.64
2022-11-24T01:09:51.536Z,97.85
2022-11-24T01:10:51.522Z,97.75
2022-11-24T01:11:51.515Z,97.75
2022-11-24T01:12:51.479Z,98.16
2022-11-24T01:13:51.463Z,98.16
2022-11-24T01:14:51.453Z,97.64
2022-11-24T01:15:51.487Z,97.85
2022-11-24T01:16:51.442Z,98.32
2022-11-24T01:17:51.428Z,97.81
2022-11-24T01:18:51.413Z,97.91
2022-11-24T01:19:51.399Z,97.86
2022-11-24T01:20:51.416Z,97.91
2022-11-24T01:21:51.371Z,97.81
2022-11-24T01:22:51.372Z,98.01
2022-11-24T01:23:51.382Z,97.97
2022-11-24T01:24:51.339Z,97.55
2022-11-24T01:25:51.422Z,97.86
2022-11-24T01:26:51.343Z,97.86
2022-11-24T01:27:51.324Z,97.71
2022-11-24T01:28:51.348Z,97.86
2022-11-24T01:29:51.341Z,97.81
2022-11-24T01:30:51.350Z,97.86
2022-11-24T01:31:51.282Z,97.81
2022-11-24T01:32:51.257Z,97.81
2022-11-24T01:33:51.247Z,97.97
2022-11-24T01:34:51.233Z,97.50
2022-11-24T01:35:51.215Z,98.22
2022-11-24T01:36:51.230Z,98.32
2022-11-24T01:37:51.203Z,98.01
2022-11-24T01:38:51.191Z,98.18
2022-11-24T01:39:51.178Z,98.94
2022-11-24T01:40:51.190Z,98.58
2022-11-24T01:41:51.193Z,98.58
2022-11-24T01:42:51.143Z,98.79
2022-11-24T01:43:51.127Z,98.58
2022-11-24T01:44:51.132Z,98.63
2022-11-24T01:45:51.192Z,98.49
2022-11-24T01:46:51.128Z,98.79
2022-11-24T01:47:51.130Z,98.74
2022-11-24T01:48:51.076Z,98.94
2022-11-24T01:49:51.072Z,98.32
2022-11-24T01:50:51.063Z,98.11
2022-11-24T01:51:51.050Z,98.11
2022-11-24T01:52:51.072Z,98.11
2022-11-24T01:53:51.018Z,98.11
2022-11-24T01:54:51.026Z,98.22
2022-11-24T01:55:51.049Z,98.32
2022-11-24T01:56:50.986Z,98.18
2022-11-24T01:57:51.013Z,98.32
2022-11-24T01:58:50.995Z,97.50
2022-11-24T01:59:50.945Z,98.01
2022-11-24T02:00:50.948Z,97.50
2022-11-24T02:01:50.977Z,98.01
2022-11-24T02:02:51.048Z,98.11
2022-11-24T02:03:50.924Z,98.32
2022-11-24T02:04:50.893Z,98.32
2022-11-24T02:05:50.889Z,98.22
2022-11-24T02:06:50.877Z,98.22
2022-11-24T02:07:50.967Z,98.22
2022-11-24T02:08:50.860Z,99.05
2022-11-24T02:09:50.842Z,99.05
2022-11-24T02:10:50.840Z,98.74
2022-11-24T02:11:50.824Z,99.05
2022-11-24T02:12:50.827Z,99.05
2022-11-24T02:13:50.811Z,98.74
2022-11-24T02:14:50.801Z,99.05
2022-11-24T02:15:50.874Z,98.53
2022-11-24T02:16:50.762Z,98.53
2022-11-24T02:17:50.772Z,98.94
2022-11-24T02:18:50.760Z,98.84
2022-11-24T02:19:50.779Z,98.74
2022-11-24T02:20:50.732Z,98.53
2022-11-24T02:21:50.709Z,98.53
2022-11-24T02:22:50.708Z,98.74
2022-11-24T02:23:50.738Z,98.84
2022-11-24T02:24:50.673Z,99.05
2022-11-24T02:25:50.670Z,98.63
2022-11-24T02:26:50.675Z,98.63
2022-11-24T02:27:53.838Z,98.79
2022-11-24T02:28:50.645Z,98.69
2022-11-24T02:29:50.634Z,98.49
2022-11-24T02:30:50.667Z,98.49
2022-11-24T02:31:50.616Z,98.49
2022-11-24T02:32:50.608Z,98.69
2022-11-24T02:33:50.573Z,98.69
2022-11-24T02:34:50.565Z,98.79
2022-11-24T02:35:50.575Z,98.49
2022-11-24T02:36:50.551Z,98.69
2022-11-24T02:37:50.544Z,98.69
2022-11-24T02:38:50.546Z,99.05
2022-11-24T02:39:50.506Z,98.90
2022-11-24T02:40:50.492Z,98.79
2022-11-24T02:41:50.494Z,98.74
2022-11-24T02:42:50.510Z,98.69
2022-11-24T02:43:50.525Z,98.84
2022-11-24T02:44:50.486Z,98.63
2022-11-24T02:45:50.520Z,98.84
2022-11-24T02:46:50.446Z,98.74
2022-11-24T02:47:50.524Z,98.49
2022-11-24T02:48:50.431Z,98.69
2022-11-24T02:49:50.464Z,98.49
2022-11-24T02:50:50.428Z,98.79
2022-11-24T02:51:50.381Z,98.79
2022-11-24T02:52:50.510Z,98.90
2022-11-24T02:53:50.401Z,98.79
2022-11-24T02:54:50.361Z,98.90
2022-11-24T02:55:50.369Z,98.79
2022-11-24T02:56:50.323Z,99.00
2022-11-24T02:57:50.318Z,99.00
2022-11-24T02:58:50.326Z,98.79
2022-11-24T02:59:50.293Z,98.49
2022-11-24T03:00:50.320Z,98.53
2022-11-24T03:01:50.351Z,98.79
2022-11-24T03:02:50.344Z,98.58
2022-11-24T03:03:50.247Z,98.79
2022-11-24T03:04:50.255Z,98.79
2022-11-24T03:05:50.226Z,98.69
2022-11-24T03:06:50.216Z,98.79
2022-11-24T03:07:50.266Z,98.69
2022-11-24T03:08:50.192Z,98.79
2022-11-24T03:09:50.199Z,98.79
2022-11-24T03:10:50.199Z,98.75
2022-11-24T03:11:50.174Z,98.54
2022-11-24T03:12:50.142Z,98.69
2022-11-24T03:13:50.178Z,98.58
2022-11-24T03:14:50.173Z,98.58
2022-11-24T03:15:50.207Z,98.96
2022-11-24T03:16:50.096Z,98.49
2022-11-24T03:17:50.115Z,98.79
2022-11-24T03:18:50.166Z,99.00
2022-11-24T03:19:50.065Z,98.69
2022-11-24T03:20:50.110Z,98.90
2022-11-24T03:21:50.044Z,98.79
2022-11-24T03:22:50.035Z,98.90
2022-11-24T03:23:50.057Z,98.90
2022-11-24T03:24:50.034Z,98.90
2022-11-24T03:25:50.018Z,98.79
2022-11-24T03:26:50.019Z,98.90
2022-11-24T03:27:50.049Z,98.69
2022-11-24T03:28:49.974Z,98.58
2022-11-24T03:29:49.965Z,98.69
2022-11-24T03:30:49.976Z,98.58
2022-11-24T03:31:49.979Z,98.69
2022-11-24T03:32:49.923Z,98.58
2022-11-24T03:33:49.965Z,98.58
2022-11-24T03:34:49.913Z,98.49
2022-11-24T03:35:49.914Z,98.58
2022-11-24T03:36:49.921Z,98.58
2022-11-24T03:37:49.921Z,98.44
2022-11-24T03:38:49.940Z,98.69
2022-11-24T03:39:49.871Z,98.33
2022-11-24T03:40:49.851Z,98.58
2022-11-24T03:41:49.824Z,98.69
2022-11-24T03:42:49.813Z,98.58
2022-11-24T03:43:49.840Z,98.65
2022-11-24T03:44:49.809Z,98.79
2022-11-24T03:45:49.839Z,98.90
2022-11-24T03:46:49.829Z,98.90
2022-11-24T03:47:49.756Z,98.96
2022-11-24T03:48:49.798Z,98.96
2022-11-24T03:49:49.768Z,98.75
2022-11-24T03:50:49.773Z,98.49
2022-11-24T03:51:49.734Z,98.65
2022-11-24T03:52:49.724Z,98.49
2022-11-24T03:53:49.692Z,98.69
2022-11-24T03:54:49.679Z,98.79
2022-11-24T03:55:49.690Z,98.75
2022-11-24T03:56:49.679Z,98.49
2022-11-24T03:57:49.668Z,98.44
2022-11-24T03:58:49.667Z,98.85
2022-11-24T03:59:49.634Z,98.58
2022-11-24T04:00:49.612Z,98.44
2022-11-24T04:01:49.655Z,98.49
2022-11-24T04:02:49.667Z,98.54
2022-11-24T04:03:49.583Z,98.44
2022-11-24T04:04:49.897Z,98.44
2022-11-24T04:05:49.570Z,98.65
2022-11-24T04:06:49.564Z,98.44
2022-11-24T04:07:49.604Z,98.44
2022-11-24T04:08:49.525Z,98.54
2022-11-24T04:09:49.522Z,98.54
2022-11-24T04:10:49.501Z,98.54
2022-11-24T04:11:49.535Z,98.44
2022-11-24T04:12:49.477Z,98.54
2022-11-24T04:13:49.473Z,98.44
2022-11-24T04:14:49.463Z,98.69
2022-11-24T04:15:49.504Z,98.65
2022-11-24T04:16:49.433Z,98.69
2022-11-24T04:17:49.448Z,98.54
2022-11-24T04:18:49.415Z,98.54
2022-11-24T04:19:49.411Z,98.44
2022-11-24T04:20:49.408Z,98.44
2022-11-24T04:21:49.389Z,98.65
2022-11-24T04:22:49.397Z,98.75
2022-11-24T04:23:49.355Z,98.96
2022-11-24T04:24:49.350Z,98.96
2022-11-24T04:25:49.357Z,98.65
2022-11-24T04:26:49.330Z,98.44
2022-11-24T04:27:49.311Z,98.65
2022-11-24T04:28:49.323Z,98.75
2022-11-24T04:29:49.288Z,98.65
2022-11-24T04:30:49.319Z,98.80
2022-11-24T04:31:49.360Z,98.91
2022-11-24T04:32:49.278Z,98.19
2022-11-24T04:33:49.256Z,98.19
2022-11-24T04:34:49.232Z,98.08
2022-11-24T04:35:49.259Z,98.13
2022-11-24T04:36:49.208Z,98.13
2022-11-24T04:37:49.223Z,98.13
2022-11-24T04:39:22.942Z,97.92
2022-11-24T04:39:50.388Z,97.72
2022-11-24T04:40:49.188Z,97.82
2022-11-24T04:41:49.176Z,97.72
2022-11-24T04:42:49.212Z,97.72
2022-11-24T04:43:49.157Z,98.02
2022-11-24T04:44:49.122Z,97.67
2022-11-24T04:45:49.113Z,97.92
2022-11-24T04:46:49.145Z,97.51
2022-11-24T04:47:49.128Z,97.82
2022-11-24T04:48:49.112Z,97.98
2022-11-24T04:49:49.086Z,97.92
2022-11-24T04:50:49.091Z,98.02
2022-11-24T04:51:49.046Z,98.02
2022-11-24T04:52:49.077Z,98.02
2022-11-24T04:53:49.055Z,98.02
2022-11-24T04:54:49.028Z,98.02
2022-11-24T04:55:49.040Z,98.02
2022-11-24T04:56:48.990Z,98.02
2022-11-24T04:57:48.993Z,97.92
2022-11-24T04:58:48.973Z,97.82
2022-11-24T04:59:48.959Z,98.02
2022-11-24T05:00:48.955Z,98.02
2022-11-24T05:01:48.973Z,98.02
2022-11-24T05:02:48.917Z,98.02
2022-11-24T05:03:48.956Z,98.02
2022-11-24T05:04:48.988Z,98.02
2022-11-24T05:05:48.886Z,97.82
2022-11-24T05:06:48.896Z,97.82
2022-11-24T05:07:48.957Z,97.55
2022-11-24T05:08:48.850Z,97.82
2022-11-24T05:09:59.424Z,97.86
2022-11-24T05:10:49.846Z,97.51
2022-11-24T05:11:48.825Z,97.55
2022-11-24T05:12:51.406Z,97.72
2022-11-24T05:13:48.834Z,97.76
2022-11-24T05:14:48.807Z,97.76
2022-11-24T05:15:48.846Z,97.76
2022-11-24T05:16:48.768Z,97.97
2022-11-24T05:17:48.764Z,97.97
2022-11-24T05:18:48.771Z,97.92
2022-11-24T05:19:48.735Z,98.07
2022-11-24T05:20:48.840Z,97.76
2022-11-24T05:21:48.733Z,97.55
2022-11-24T05:22:48.699Z,97.92
2022-11-24T05:23:48.720Z,98.07
2022-11-24T05:24:48.703Z,98.13
2022-11-24T05:25:48.709Z,98.13
2022-11-24T05:26:48.687Z,98.07
2022-11-24T05:27:48.663Z,98.28
2022-11-24T05:28:48.638Z,98.13
2022-11-24T05:29:48.642Z,98.18
2022-11-24T05:30:48.617Z,98.65
2022-11-24T05:31:48.710Z,98.90
2022-11-24T05:32:48.586Z,98.96
2022-11-24T05:33:48.600Z,98.65
2022-11-24T05:34:48.577Z,98.54
2022-11-24T05:35:48.566Z,98.44
2022-11-24T05:36:48.539Z,98.54
2022-11-24T05:37:48.580Z,98.75
2022-11-24T05:38:48.527Z,98.54
2022-11-24T05:39:48.535Z,98.75
2022-11-24T05:40:48.502Z,98.96
2022-11-24T05:41:48.549Z,98.85
2022-11-24T05:42:48.529Z,99.10
2022-11-24T05:43:48.556Z,98.13
2022-11-24T05:44:48.469Z,99.00
2022-11-24T05:45:48.476Z,98.85
2022-11-24T05:46:48.527Z,99.00
2022-11-24T05:47:48.456Z,98.69
2022-11-24T05:48:48.571Z,98.65
2022-11-24T05:49:48.439Z,98.79
2022-11-24T05:50:48.385Z,98.69
2022-11-24T05:51:48.488Z,98.65
2022-11-24T05:52:48.386Z,98.54
2022-11-24T05:53:48.359Z,98.65
2022-11-24T05:54:48.386Z,98.75
2022-11-24T05:55:48.355Z,98.96
2022-11-24T05:56:48.347Z,98.96
2022-11-24T05:57:48.328Z,98.96
2022-11-24T05:58:48.324Z,98.75
2022-11-24T05:59:48.329Z,98.75
2022-11-24T06:00:48.277Z,98.75
2022-11-24T06:01:48.606Z,98.44
2022-11-24T06:02:48.627Z,98.54
2022-11-24T06:03:48.253Z,98.44
2022-11-24T06:04:48.249Z,98.54
2022-11-24T06:05:49.191Z,98.60
2022-11-24T06:06:48.267Z,98.44
2022-11-24T06:07:48.264Z,98.50
2022-11-24T06:08:48.242Z,98.44
2022-11-24T06:09:48.511Z,98.44
2022-11-24T06:10:48.162Z,98.44
2022-11-24T06:11:48.217Z,98.54
2022-11-24T06:12:48.192Z,98.54
2022-11-24T06:13:48.248Z,98.33
2022-11-24T06:14:48.135Z,98.39
2022-11-24T06:15:48.113Z,98.39
2022-11-24T06:16:48.172Z,98.39
2022-11-24T06:17:48.138Z,98.70
2022-11-24T06:18:48.116Z,98.50
2022-11-24T06:19:48.078Z,98.39
2022-11-24T06:21:09.151Z,98.91
2022-11-24T06:21:49.067Z,98.39
2022-11-24T06:22:48.041Z,98.39
2022-11-24T06:23:48.019Z,98.39
2022-11-24T06:24:48.078Z,98.80
2022-11-24T06:25:51.522Z,98.55
2022-11-24T06:26:48.035Z,98.50
2022-11-24T06:27:48.012Z,98.29
2022-11-24T06:28:48.046Z,98.35
2022-11-24T06:29:47.972Z,98.60
2022-11-24T06:30:47.984Z,98.08
2022-11-24T06:31:48.063Z,98.19
2022-11-24T06:32:50.028Z,98.29
2022-11-24T06:33:47.948Z,98.08
2022-11-24T06:34:47.957Z,98.08
2022-11-24T06:35:47.896Z,98.19
2022-11-24T06:36:47.881Z,98.08
2022-11-24T06:37:47.868Z,98.08
2022-11-24T06:38:47.892Z,97.47
2022-11-24T06:39:47.928Z,98.19
2022-11-24T06:40:47.847Z,98.08
2022-11-24T06:41:47.824Z,98.19
2022-11-24T06:42:47.840Z,98.29
2022-11-24T06:43:47.858Z,98.19
2022-11-24T06:44:47.824Z,98.13
2022-11-24T06:45:47.901Z,98.02
2022-11-24T06:46:47.785Z,97.77
2022-11-24T06:47:47.765Z,97.67
2022-11-24T06:48:47.779Z,97.36
2022-11-24T06:49:47.764Z,97.88
2022-11-24T06:50:47.751Z,97.72
2022-11-24T06:51:47.724Z,97.72
2022-11-24T06:52:47.796Z,97.72
2022-11-24T06:53:47.717Z,97.82
2022-11-24T06:54:47.690Z,97.72
2022-11-24T06:55:47.684Z,97.76
2022-11-24T06:56:47.700Z,97.76
2022-11-24T06:57:47.662Z,98.02
2022-11-24T06:58:47.715Z,98.13
2022-11-24T06:59:47.620Z,98.23
2022-11-24T07:00:47.682Z,98.02
2022-11-24T07:01:47.635Z,98.23
2022-11-24T07:02:47.667Z,98.13
2022-11-24T07:03:47.639Z,98.75
2022-11-24T07:04:47.616Z,98.54
2022-11-24T07:05:47.571Z,98.85
2022-11-24T07:06:47.581Z,98.65
2022-11-24T07:07:47.626Z,98.85
2022-11-24T07:08:47.596Z,98.54
2022-11-24T07:09:47.524Z,98.39
2022-11-24T07:10:47.506Z,98.50
2022-11-24T07:11:47.514Z,98.39
2022-11-24T07:12:47.512Z,98.39
2022-11-24T07:13:47.533Z,98.60
2022-11-24T07:14:47.511Z,98.76
2022-11-24T07:15:47.512Z,98.86
2022-11-24T07:16:47.495Z,98.76
2022-11-24T07:17:47.475Z,98.45
2022-11-24T07:18:47.446Z,98.76
2022-11-24T07:19:47.452Z,98.45
2022-11-24T07:20:47.397Z,98.91
2022-11-24T07:21:47.387Z,98.08
2022-11-24T07:22:47.374Z,98.03
2022-11-24T07:23:47.378Z,98.03
2022-11-24T07:24:47.379Z,97.31
2022-11-24T07:25:47.335Z,97.83
2022-11-24T07:26:47.350Z,97.63
2022-11-24T07:27:47.310Z,97.42
2022-11-24T07:28:47.327Z,97.83
2022-11-24T07:29:47.336Z,97.68
2022-11-24T07:30:47.325Z,97.48
2022-11-24T07:31:47.294Z,97.58
2022-11-24T07:32:47.292Z,97.58
2022-11-24T07:33:47.316Z,97.58
2022-11-24T07:34:47.241Z,97.89
2022-11-24T07:35:47.263Z,97.78
2022-11-24T07:36:47.220Z,97.38
2022-11-24T07:37:47.213Z,97.17
2022-11-24T07:38:47.230Z,97.68
2022-11-24T07:39:47.206Z,97.38
2022-11-24T07:40:47.191Z,97.27
2022-11-24T07:41:47.161Z,96.86
2022-11-24T07:42:47.171Z,97.33
2022-11-24T07:43:47.148Z,96.92
2022-11-24T07:44:47.123Z,97.43
2022-11-24T07:45:47.186Z,97.23
2022-11-24T07:46:47.183Z,97.43
2022-11-24T07:47:47.118Z,97.33
2022-11-24T07:48:47.120Z,96.50
2022-11-24T07:49:47.105Z,96.81
2022-11-24T07:50:49.947Z,96.61
2022-11-24T07:51:48.057Z,96.46
2022-11-24T07:52:47.050Z,96.67
2022-11-24T07:53:47.027Z,96.05
2022-11-24T07:54:47.073Z,96.25
2022-11-24T07:55:47.013Z,96.25
2022-11-24T07:56:47.023Z,96.46
2022-11-24T07:57:47.011Z,95.80
2022-11-24T07:58:52.494Z,96.21
2022-11-24T07:59:48.022Z,96.11
2022-11-24T08:00:46.952Z,96.21
2022-11-24T08:01:47.013Z,95.18
2022-11-24T08:02:46.923Z,95.03
2022-11-24T08:03:47.140Z,95.28
2022-11-24T08:04:46.923Z,94.98
2022-11-24T08:06:15.926Z,94.73
2022-11-24T08:06:47.968Z,94.83
2022-11-24T08:07:47.037Z,94.93
2022-11-24T08:08:46.913Z,94.73
2022-11-24T08:09:46.871Z,95.24
2022-11-24T08:10:46.828Z,94.31
2022-11-24T08:11:46.838Z,94.73
2022-11-24T08:12:46.822Z,94.89
2022-11-24T08:13:46.823Z,94.78
2022-11-24T08:14:46.814Z,93.96
2022-11-24T08:15:46.811Z,93.86
2022-11-24T08:16:46.866Z,93.86
2022-11-24T08:17:46.764Z,94.07
2022-11-24T08:18:46.774Z,94.17
2022-11-24T08:19:46.738Z,93.76
2022-11-24T08:20:46.842Z,93.44
2022-11-24T08:21:46.765Z,93.04
2022-11-24T08:22:46.740Z,93.24
2022-11-24T08:23:46.708Z,93.14
2022-11-24T08:24:46.715Z,93.55
2022-11-24T08:25:46.719Z,93.44
2022-11-24T08:26:46.677Z,93.35
2022-11-24T08:27:46.694Z,93.14
2022-11-24T08:28:46.637Z,93.24
2022-11-24T08:29:46.650Z,93.65
2022-11-24T08:30:46.686Z,93.76
2022-11-24T08:31:46.717Z,93.96
2022-11-24T08:32:46.652Z,93.86
2022-11-24T08:33:46.584Z,94.37
2022-11-24T08:34:46.569Z,93.96
2022-11-24T08:35:46.552Z,93.76
2022-11-24T08:36:46.597Z,94.07
2022-11-24T08:37:46.587Z,93.82
2022-11-24T08:38:46.553Z,94.07
2022-11-24T08:39:46.509Z,94.12
2022-11-24T08:40:46.516Z,94.07
2022-11-24T08:41:46.603Z,93.92
2022-11-24T08:42:46.516Z,93.82
2022-11-24T08:43:46.492Z,93.98
2022-11-24T08:44:46.520Z,93.67
2022-11-24T08:45:46.527Z,93.52
2022-11-24T08:46:46.492Z,93.38
2022-11-24T08:47:46.429Z,93.07
2022-11-24T08:48:46.435Z,93.02
2022-11-24T08:49:46.429Z,93.13
2022-11-24T08:50:46.402Z,92.82
2022-11-24T08:51:46.417Z,92.51
2022-11-24T08:52:46.379Z,92.98
2022-11-24T08:53:46.369Z,92.68
2022-11-24T08:54:46.340Z,92.16
2022-11-24T08:55:46.376Z,92.93
2022-11-24T08:56:46.355Z,92.27
2022-11-24T08:57:46.326Z,92.10
2022-11-24T08:58:46.407Z,92.06
2022-11-24T08:59:46.289Z,92.27
2022-11-24T09:00:46.312Z,92.06
2022-11-24T09:01:46.352Z,91.44
2022-11-24T09:02:46.292Z,92.47
2022-11-24T09:03:50.393Z,92.47
2022-11-24T09:04:46.267Z,91.96
2022-11-24T09:05:53.432Z,92.36
2022-11-24T09:06:47.261Z,92.16
2022-11-24T09:07:46.311Z,91.71
2022-11-24T09:08:46.237Z,91.86
2022-11-24T09:09:46.300Z,91.91
2022-11-24T09:10:46.266Z,91.91
2022-11-24T09:11:46.182Z,92.02
2022-11-24T09:12:46.162Z,92.12
2022-11-24T09:13:46.183Z,91.36
2022-11-24T09:14:46.125Z,92.32
2022-11-24T09:15:46.193Z,92.43
2022-11-24T09:16:46.160Z,91.71
2022-11-24T09:17:46.105Z,92.38
2022-11-24T09:18:46.108Z,92.28
2022-11-24T09:19:46.066Z,91.82
2022-11-24T09:20:46.115Z,91.05
2022-11-24T09:21:46.056Z,91.05
2022-11-24T09:22:46.046Z,91.05
2022-11-24T09:23:46.026Z,90.79
2022-11-24T09:24:46.060Z,90.28
2022-11-24T09:25:46.062Z,90.37
2022-11-24T09:26:47.651Z,90.69
2022-11-24T09:27:46.009Z,91.30
2022-11-24T09:28:45.997Z,90.93
2022-11-24T09:29:46.011Z,90.62
2022-11-24T09:30:45.982Z,91.35
2022-11-24T09:31:45.977Z,91.35
2022-11-24T09:32:45.932Z,91.38
2022-11-24T09:33:45.911Z,91.38
2022-11-24T09:34:45.906Z,90.77
2022-11-24T09:35:45.897Z,91.69
2022-11-24T09:36:45.875Z,91.38
2022-11-24T09:37:45.882Z,91.18
2022-11-24T09:38:45.862Z,91.69
2022-11-24T09:39:45.859Z,92.61
2022-11-24T09:40:45.840Z,92.06
2022-11-24T09:41:45.875Z,92.51
2022-11-24T09:42:50.630Z,92.41
2022-11-24T09:43:45.837Z,91.80
2022-11-24T09:44:45.791Z,91.90
2022-11-24T09:46:46.806Z,91.18
2022-11-24T09:47:45.806Z,91.18
2022-11-24T09:48:45.749Z,91.69
2022-11-24T09:49:50.948Z,91.69
2022-11-24T09:50:46.768Z,91.69
2022-11-24T09:51:45.746Z,91.69
2022-11-24T09:52:45.721Z,91.49
2022-11-24T09:53:45.789Z,91.69
2022-11-24T09:54:45.686Z,91.59
2022-11-24T09:55:45.697Z,92.10
2022-11-24T09:56:45.686Z,92.00
2022-11-24T09:57:45.658Z,92.21
2022-11-24T09:58:45.683Z,92.10
2022-11-24T09:59:45.628Z,92.00
2022-11-24T10:00:45.649Z,92.72
2022-11-24T10:01:45.715Z,92.82
2022-11-24T10:02:45.622Z,92.61
2022-11-24T10:03:45.633Z,92.93
2022-11-24T10:04:45.707Z,92.51
2022-11-24T10:05:45.562Z,92.61
2022-11-24T10:06:45.542Z,92.31
2022-11-24T10:07:45.614Z,92.21
2022-11-24T10:08:45.557Z,92.51
2022-11-24T10:09:45.582Z,92.76
2022-11-24T10:10:45.517Z,92.66
2022-11-24T10:11:45.496Z,93.38
2022-11-24T10:12:45.469Z,92.86
2022-11-24T10:13:45.509Z,92.97
2022-11-24T10:14:45.457Z,92.76
2022-11-24T10:15:45.815Z,92.46
2022-11-24T10:16:45.449Z,93.27
2022-11-24T10:17:45.437Z,92.76
2022-11-24T10:18:45.425Z,93.48
2022-11-24T10:19:45.483Z,92.55
2022-11-24T10:20:45.418Z,93.07
2022-11-24T10:21:45.391Z,92.55
2022-11-24T10:22:45.390Z,92.55
2022-11-24T10:23:45.420Z,92.55
2022-11-24T10:24:45.447Z,92.86
2022-11-24T10:25:45.323Z,93.07
2022-11-24T10:26:45.376Z,93.17
2022-11-24T10:27:45.340Z,93.38
2022-11-24T10:28:45.347Z,93.17
2022-11-24T10:29:45.325Z,93.59
2022-11-24T10:30:45.464Z,93.17
2022-11-24T10:31:45.253Z,93.07
2022-11-24T10:32:45.265Z,93.13
2022-11-24T10:33:45.311Z,92.76
2022-11-24T10:34:45.222Z,92.86
2022-11-24T10:35:45.215Z,92.55
2022-11-24T10:36:45.234Z,92.61
2022-11-24T10:37:45.258Z,92.55
2022-11-24T10:38:45.185Z,92.76
2022-11-24T10:39:45.174Z,92.82
2022-11-24T10:41:00.478Z,92.46
2022-11-24T10:41:46.165Z,93.17
2022-11-24T10:42:45.155Z,93.27
2022-11-24T10:43:45.134Z,92.55
2022-11-24T10:44:45.126Z,92.86
2022-11-24T10:45:45.165Z,92.66
2022-11-24T10:46:45.264Z,93.17
2022-11-24T10:47:45.118Z,92.35
2022-11-24T10:48:45.115Z,92.86
2022-11-24T10:49:45.082Z,92.86
2022-11-24T10:50:45.084Z,92.86
2022-11-24T10:51:45.095Z,92.66
2022-11-24T10:52:45.040Z,92.51
2022-11-24T10:53:45.116Z,92.97
2022-11-24T10:54:45.013Z,92.55
2022-11-24T10:55:45.015Z,92.97
2022-11-24T10:56:45.013Z,92.86
2022-11-24T10:57:44.972Z,93.13
2022-11-24T10:58:45.071Z,92.93
2022-11-24T10:59:44.941Z,93.44
2022-11-24T11:00:44.937Z,93.02
2022-11-24T11:01:45.052Z,92.72
2022-11-24T11:02:44.960Z,92.51
2022-11-24T11:03:44.900Z,92.31
2022-11-24T11:04:44.972Z,93.02
2022-11-24T11:05:44.941Z,92.72
2022-11-24T11:06:44.974Z,92.72
2022-11-24T11:07:44.929Z,92.82
2022-11-24T11:08:45.040Z,92.88
2022-11-24T11:09:44.850Z,92.82
2022-11-24T11:10:44.851Z,92.78
2022-11-24T11:11:44.812Z,92.72
2022-11-24T11:12:45.338Z,92.06
2022-11-24T11:13:44.820Z,92.51
2022-11-24T11:14:44.794Z,92.21
2022-11-24T11:15:44.876Z,91.90
2022-11-24T11:16:45.108Z,92.10
2022-11-24T11:17:44.773Z,92.51
2022-11-24T11:18:44.738Z,92.21
2022-11-24T11:19:49.408Z,91.69
2022-11-24T11:20:45.775Z,91.69
2022-11-24T11:21:44.722Z,91.59
2022-11-24T11:22:44.694Z,91.80
2022-11-24T11:23:44.693Z,92.10
2022-11-24T11:24:44.716Z,91.80
2022-11-24T11:25:44.670Z,91.80
2022-11-24T11:26:44.639Z,91.90
2022-11-24T11:27:44.663Z,92.31
2022-11-24T11:28:44.638Z,91.80
2022-11-24T11:34:02.973Z,91.55
2022-11-24T11:34:45.591Z,91.71
2022-11-24T11:35:44.572Z,91.71
2022-11-24T11:36:44.530Z,91.67
2022-11-24T11:37:44.543Z,91.16
2022-11-24T11:38:44.511Z,90.50
2022-11-24T11:39:48.669Z,90.70
2022-11-24T11:40:44.498Z,90.56
2022-11-24T11:41:44.488Z,89.80
2022-11-24T11:43:45.497Z,89.39
2022-11-24T11:44:44.512Z,87.82
2022-11-24T11:45:44.574Z,87.20
2022-11-24T11:46:44.512Z,87.67
2022-11-24T11:47:44.474Z,86.96
2022-11-24T11:48:44.415Z,86.51
2022-11-24T11:49:44.427Z,86.10
2022-11-24T11:51:14.921Z,84.71
2022-11-24T11:51:45.552Z,84.20
2022-11-24T11:52:44.360Z,84.81
2022-11-24T11:53:44.370Z,85.22
2022-11-24T11:54:44.843Z,86.14
2022-11-24T11:55:49.741Z,86.04
2022-11-24T11:56:45.482Z,86.10
2022-11-24T11:57:44.303Z,86.30
2022-11-24T11:58:44.334Z,84.98
2022-11-24T11:59:44.270Z,85.38
2022-11-24T12:00:44.285Z,85.89
2022-11-24T12:01:44.298Z,84.98
2022-11-24T12:02:48.547Z,85.28
2022-11-24T12:03:45.381Z,84.88
2022-11-24T12:04:44.214Z,84.67
2022-11-24T12:05:44.237Z,84.83
2022-11-24T12:06:44.287Z,84.49
2022-11-24T12:07:44.301Z,84.18
2022-11-24T12:09:18.023Z,83.67
2022-11-24T12:09:45.157Z,83.16
2022-11-24T12:10:44.183Z,82.71
2022-11-24T12:11:44.175Z,82.21
2022-11-24T12:12:44.141Z,82.51
2022-11-24T12:13:44.227Z,82.10
2022-11-24T12:14:44.179Z,82.21
2022-11-24T12:15:44.204Z,80.88
2022-11-24T12:16:44.125Z,80.27
2022-11-24T12:17:44.097Z,80.61
2022-11-24T12:18:59.540Z,79.69
2022-11-24T12:19:45.050Z,80.04
2022-11-24T12:20:44.062Z,80.96
2022-11-24T12:21:44.074Z,80.89
2022-11-24T12:22:44.023Z,82.01
2022-11-24T12:23:44.079Z,82.87
2022-11-24T12:24:44.087Z,83.28
2022-11-24T12:25:44.001Z,83.69
2022-11-24T12:26:43.980Z,83.07
2022-11-24T12:27:44.019Z,83.93
2022-11-24T12:28:43.978Z,83.79
2022-11-24T12:29:43.998Z,84.14
2022-11-24T12:30:43.983Z,83.83
2022-11-24T12:31:44.089Z,83.32
2022-11-24T12:32:43.915Z,83.52
2022-11-24T12:33:49.163Z,84.24
2022-11-24T12:34:44.908Z,84.00
2022-11-24T12:35:43.880Z,84.65
2022-11-24T12:36:43.881Z,84.65
2022-11-24T12:37:43.868Z,84.65
2022-11-24T12:38:43.859Z,85.16
2022-11-24T12:39:43.970Z,84.75
2022-11-24T12:40:47.191Z,85.06
2022-11-24T12:41:43.866Z,84.69
2022-11-24T12:42:43.820Z,84.28
2022-11-24T12:43:43.804Z,84.38
2022-11-24T12:44:43.810Z,84.52
2022-11-24T12:45:43.758Z,84.83
2022-11-24T12:46:43.897Z,84.93
2022-11-24T12:47:43.749Z,84.93
2022-11-24T12:48:43.836Z,85.03
2022-11-24T12:49:43.731Z,84.83
2022-11-24T12:50:43.771Z,84.87
2022-11-24T12:51:43.724Z,85.24
2022-11-24T12:52:43.715Z,85.38
2022-11-24T12:53:43.717Z,85.48
2022-11-24T12:54:43.666Z,85.28
2022-11-24T12:55:43.762Z,85.48
2022-11-24T12:56:43.679Z,85.28
2022-11-24T12:57:43.633Z,86.10
2022-11-24T12:58:43.629Z,86.30